sensor_id;sensor_type;location;lat;lon;timestamp;P1;durP1;ratioP1;P2;durP2;ratioP2
71172;SDS011;58875;51.996;4.504;2022-12-10T00:01:14;61.26;;;47.33;;
71172;SDS011;58875;51.996;4.504;2022-12-10T00:03:43;60.53;;;46.75;;
71172;SDS011;58875;51.996;4.504;2022-12-10T00:06:11;62.62;;;47.75;;
71172;SDS011;58875;51.996;4.504;2022-12-10T00:08:44;64.63;;;49.20;;
71172;SDS011;58875;51.996;4.504;2022-12-10T00:11:11;65.52;;;49.47;;
71172;SDS011;58875;51.996;4.504;2022-12-10T00:13:38;64.04;;;48.81;;
71172;SDS011;58875;51.996;4.504;2022-12-10T00:16:06;63.24;;;48.60;;
71172;SDS011;58875;51.996;4.504;2022-12-10T00:18:33;67.26;;;50.67;;
71172;SDS011;58875;51.996;4.504;2022-12-10T00:21:06;67.05;;;50.46;;
71172;SDS011;58875;51.996;4.504;2022-12-10T00:23:35;62.82;;;48.14;;
71172;SDS011;58875;51.996;4.504;2022-12-10T00:26:05;60.86;;;46.82;;
71172;SDS011;58875;51.996;4.504;2022-12-10T00:28:32;61.19;;;47.23;;
71172;SDS011;58875;51.996;4.504;2022-12-10T00:33:59;59.24;;;46.68;;
71172;SDS011;58875;51.996;4.504;2022-12-10T00:36:29;56.59;;;44.70;;
71172;SDS011;58875;51.996;4.504;2022-12-10T00:39:07;61.77;;;47.66;;
71172;SDS011;58875;51.996;4.504;2022-12-10T00:41:35;58.35;;;46.08;;
71172;SDS011;58875;51.996;4.504;2022-12-10T00:44:00;62.73;;;48.15;;
71172;SDS011;58875;51.996;4.504;2022-12-10T00:46:26;64.22;;;49.30;;
71172;SDS011;58875;51.996;4.504;2022-12-10T00:48:52;61.84;;;48.26;;
71172;SDS011;58875;51.996;4.504;2022-12-10T00:51:27;60.04;;;47.51;;
71172;SDS011;58875;51.996;4.504;2022-12-10T00:53:54;63.64;;;49.26;;
71172;SDS011;58875;51.996;4.504;2022-12-10T00:56:23;61.29;;;47.66;;
71172;SDS011;58875;51.996;4.504;2022-12-10T00:58:51;61.74;;;47.82;;
71172;SDS011;58875;51.996;4.504;2022-12-10T01:03:49;60.67;;;47.01;;
71172;SDS011;58875;51.996;4.504;2022-12-10T01:06:22;60.56;;;47.53;;
71172;SDS011;58875;51.996;4.504;2022-12-10T01:08:49;61.15;;;47.72;;
71172;SDS011;58875;51.996;4.504;2022-12-10T01:11:18;61.47;;;47.81;;
71172;SDS011;58875;51.996;4.504;2022-12-10T01:13:47;61.49;;;48.10;;
71172;SDS011;58875;51.996;4.504;2022-12-10T01:16:15;60.25;;;47.88;;
71172;SDS011;58875;51.996;4.504;2022-12-10T01:18:43;60.06;;;47.34;;
71172;SDS011;58875;51.996;4.504;2022-12-10T01:21:10;59.17;;;47.40;;
71172;SDS011;58875;51.996;4.504;2022-12-10T01:23:39;59.60;;;47.22;;
71172;SDS011;58875;51.996;4.504;2022-12-10T01:26:07;56.00;;;45.01;;
71172;SDS011;58875;51.996;4.504;2022-12-10T01:28:36;54.38;;;44.66;;
71172;SDS011;58875;51.996;4.504;2022-12-10T01:31:04;57.14;;;46.16;;
71172;SDS011;58875;51.996;4.504;2022-12-10T01:33:35;57.57;;;46.16;;
71172;SDS011;58875;51.996;4.504;2022-12-10T01:36:04;61.16;;;48.41;;
71172;SDS011;58875;51.996;4.504;2022-12-10T01:38:36;59.40;;;47.08;;
71172;SDS011;58875;51.996;4.504;2022-12-10T01:41:02;60.21;;;47.53;;
71172;SDS011;58875;51.996;4.504;2022-12-10T01:43:29;60.07;;;47.64;;
71172;SDS011;58875;51.996;4.504;2022-12-10T01:46:13;61.24;;;47.79;;
71172;SDS011;58875;51.996;4.504;2022-12-10T01:48:39;59.74;;;47.51;;
71172;SDS011;58875;51.996;4.504;2022-12-10T01:51:04;57.69;;;46.69;;
71172;SDS011;58875;51.996;4.504;2022-12-10T01:53:31;59.93;;;47.45;;
71172;SDS011;58875;51.996;4.504;2022-12-10T01:55:57;59.67;;;47.11;;
71172;SDS011;58875;51.996;4.504;2022-12-10T01:58:22;60.22;;;47.33;;
71172;SDS011;58875;51.996;4.504;2022-12-10T02:01:05;57.10;;;45.65;;
71172;SDS011;58875;51.996;4.504;2022-12-10T02:04:12;63.64;;;49.32;;
71172;SDS011;58875;51.996;4.504;2022-12-10T02:07:33;63.32;;;48.87;;
71172;SDS011;58875;51.996;4.504;2022-12-10T02:15:15;63.02;;;48.62;;
71172;SDS011;58875;51.996;4.504;2022-12-10T02:18:19;71.76;;;53.03;;
71172;SDS011;58875;51.996;4.504;2022-12-10T02:20:43;67.10;;;50.56;;
71172;SDS011;58875;51.996;4.504;2022-12-10T02:25:58;72.98;;;53.77;;
71172;SDS011;58875;51.996;4.504;2022-12-10T02:28:36;69.38;;;52.05;;
71172;SDS011;58875;51.996;4.504;2022-12-10T02:31:10;69.29;;;51.79;;
71172;SDS011;58875;51.996;4.504;2022-12-10T02:33:42;72.65;;;53.65;;
71172;SDS011;58875;51.996;4.504;2022-12-10T02:36:13;78.78;;;57.19;;
71172;SDS011;58875;51.996;4.504;2022-12-10T02:38:41;74.52;;;54.78;;
71172;SDS011;58875;51.996;4.504;2022-12-10T02:41:12;70.56;;;52.48;;
71172;SDS011;58875;51.996;4.504;2022-12-10T02:43:43;68.00;;;51.00;;
71172;SDS011;58875;51.996;4.504;2022-12-10T02:46:13;67.39;;;50.68;;
71172;SDS011;58875;51.996;4.504;2022-12-10T02:48:39;70.18;;;52.03;;
71172;SDS011;58875;51.996;4.504;2022-12-10T02:51:06;70.45;;;51.78;;
71172;SDS011;58875;51.996;4.504;2022-12-10T02:53:31;71.54;;;52.42;;
71172;SDS011;58875;51.996;4.504;2022-12-10T03:01:31;75.95;;;54.60;;
71172;SDS011;58875;51.996;4.504;2022-12-10T03:04:21;80.64;;;57.46;;
71172;SDS011;58875;51.996;4.504;2022-12-10T03:07:11;77.09;;;54.86;;
71172;SDS011;58875;51.996;4.504;2022-12-10T03:09:56;78.98;;;55.95;;
71172;SDS011;58875;51.996;4.504;2022-12-10T03:12:47;74.59;;;53.57;;
71172;SDS011;58875;51.996;4.504;2022-12-10T03:15:22;72.81;;;52.77;;
71172;SDS011;58875;51.996;4.504;2022-12-10T03:17:51;72.58;;;52.19;;
71172;SDS011;58875;51.996;4.504;2022-12-10T03:20:20;78.87;;;55.54;;
71172;SDS011;58875;51.996;4.504;2022-12-10T03:22:49;70.96;;;50.88;;
71172;SDS011;58875;51.996;4.504;2022-12-10T03:25:17;76.99;;;54.59;;
71172;SDS011;58875;51.996;4.504;2022-12-10T03:27:48;76.72;;;54.44;;
71172;SDS011;58875;51.996;4.504;2022-12-10T03:30:18;68.30;;;49.45;;
71172;SDS011;58875;51.996;4.504;2022-12-10T03:32:44;74.10;;;52.89;;
71172;SDS011;58875;51.996;4.504;2022-12-10T03:35:10;67.11;;;49.28;;
71172;SDS011;58875;51.996;4.504;2022-12-10T03:37:38;70.79;;;50.89;;
71172;SDS011;58875;51.996;4.504;2022-12-10T03:40:05;82.01;;;56.57;;
71172;SDS011;58875;51.996;4.504;2022-12-10T03:42:33;81.59;;;56.61;;
71172;SDS011;58875;51.996;4.504;2022-12-10T03:45:00;93.95;;;63.36;;
71172;SDS011;58875;51.996;4.504;2022-12-10T03:47:26;89.88;;;60.94;;
71172;SDS011;58875;51.996;4.504;2022-12-10T03:49:51;97.87;;;65.39;;
71172;SDS011;58875;51.996;4.504;2022-12-10T03:52:17;78.66;;;54.79;;
71172;SDS011;58875;51.996;4.504;2022-12-10T03:54:42;67.06;;;48.87;;
71172;SDS011;58875;51.996;4.504;2022-12-10T03:57:08;72.27;;;51.54;;
71172;SDS011;58875;51.996;4.504;2022-12-10T03:59:33;68.17;;;49.25;;
71172;SDS011;58875;51.996;4.504;2022-12-10T04:01:59;63.74;;;46.75;;
71172;SDS011;58875;51.996;4.504;2022-12-10T04:04:25;68.78;;;50.28;;
71172;SDS011;58875;51.996;4.504;2022-12-10T04:06:50;68.70;;;49.73;;
71172;SDS011;58875;51.996;4.504;2022-12-10T04:09:16;73.15;;;52.29;;
71172;SDS011;58875;51.996;4.504;2022-12-10T04:11:42;72.35;;;51.89;;
71172;SDS011;58875;51.996;4.504;2022-12-10T04:14:08;68.01;;;49.45;;
71172;SDS011;58875;51.996;4.504;2022-12-10T04:16:54;75.82;;;54.38;;
71172;SDS011;58875;51.996;4.504;2022-12-10T04:19:19;70.92;;;51.45;;
71172;SDS011;58875;51.996;4.504;2022-12-10T04:21:45;80.78;;;57.12;;
71172;SDS011;58875;51.996;4.504;2022-12-10T04:24:31;66.71;;;49.63;;
71172;SDS011;58875;51.996;4.504;2022-12-10T04:27:21;60.92;;;46.15;;
71172;SDS011;58875;51.996;4.504;2022-12-10T04:29:48;63.64;;;47.84;;
71172;SDS011;58875;51.996;4.504;2022-12-10T04:32:13;62.15;;;47.20;;
71172;SDS011;58875;51.996;4.504;2022-12-10T04:34:39;73.96;;;53.46;;
71172;SDS011;58875;51.996;4.504;2022-12-10T04:37:05;54.86;;;43.04;;
71172;SDS011;58875;51.996;4.504;2022-12-10T04:39:31;63.52;;;48.12;;
71172;SDS011;58875;51.996;4.504;2022-12-10T04:41:58;62.89;;;48.01;;
71172;SDS011;58875;51.996;4.504;2022-12-10T04:44:25;63.05;;;47.57;;
71172;SDS011;58875;51.996;4.504;2022-12-10T04:46:50;66.10;;;49.85;;
71172;SDS011;58875;51.996;4.504;2022-12-10T04:49:16;67.22;;;50.45;;
71172;SDS011;58875;51.996;4.504;2022-12-10T04:51:41;75.17;;;54.73;;
71172;SDS011;58875;51.996;4.504;2022-12-10T04:54:07;74.57;;;54.38;;
71172;SDS011;58875;51.996;4.504;2022-12-10T04:56:34;61.58;;;47.19;;
71172;SDS011;58875;51.996;4.504;2022-12-10T04:59:00;63.45;;;47.91;;
71172;SDS011;58875;51.996;4.504;2022-12-10T05:01:27;57.83;;;44.96;;
71172;SDS011;58875;51.996;4.504;2022-12-10T05:03:53;62.34;;;46.77;;
71172;SDS011;58875;51.996;4.504;2022-12-10T05:06:19;59.56;;;45.86;;
71172;SDS011;58875;51.996;4.504;2022-12-10T05:08:45;49.79;;;40.28;;
71172;SDS011;58875;51.996;4.504;2022-12-10T05:11:12;45.98;;;37.98;;
71172;SDS011;58875;51.996;4.504;2022-12-10T05:13:40;57.33;;;44.26;;
71172;SDS011;58875;51.996;4.504;2022-12-10T05:16:06;57.64;;;44.16;;
71172;SDS011;58875;51.996;4.504;2022-12-10T05:18:34;54.09;;;42.39;;
71172;SDS011;58875;51.996;4.504;2022-12-10T05:21:01;54.91;;;42.81;;
71172;SDS011;58875;51.996;4.504;2022-12-10T05:23:28;47.43;;;38.70;;
71172;SDS011;58875;51.996;4.504;2022-12-10T05:25:58;47.35;;;38.00;;
71172;SDS011;58875;51.996;4.504;2022-12-10T05:28:33;52.52;;;41.29;;
71172;SDS011;58875;51.996;4.504;2022-12-10T05:31:20;47.62;;;38.70;;
71172;SDS011;58875;51.996;4.504;2022-12-10T05:33:49;49.04;;;39.54;;
71172;SDS011;58875;51.996;4.504;2022-12-10T05:36:16;54.44;;;41.91;;
71172;SDS011;58875;51.996;4.504;2022-12-10T05:38:44;53.60;;;42.00;;
71172;SDS011;58875;51.996;4.504;2022-12-10T05:41:14;55.67;;;42.73;;
71172;SDS011;58875;51.996;4.504;2022-12-10T05:43:41;52.98;;;40.97;;
71172;SDS011;58875;51.996;4.504;2022-12-10T05:46:09;52.98;;;40.46;;
71172;SDS011;58875;51.996;4.504;2022-12-10T05:48:42;65.97;;;47.73;;
71172;SDS011;58875;51.996;4.504;2022-12-10T05:51:09;53.61;;;40.78;;
71172;SDS011;58875;51.996;4.504;2022-12-10T05:53:37;49.15;;;38.19;;
71172;SDS011;58875;51.996;4.504;2022-12-10T05:56:05;54.24;;;40.82;;
71172;SDS011;58875;51.996;4.504;2022-12-10T05:58:36;49.99;;;38.81;;
71172;SDS011;58875;51.996;4.504;2022-12-10T06:01:07;47.92;;;37.42;;
71172;SDS011;58875;51.996;4.504;2022-12-10T06:03:47;45.94;;;36.39;;
71172;SDS011;58875;51.996;4.504;2022-12-10T06:06:19;41.20;;;33.51;;
71172;SDS011;58875;51.996;4.504;2022-12-10T06:08:49;48.36;;;37.55;;
71172;SDS011;58875;51.996;4.504;2022-12-10T06:11:16;48.49;;;37.45;;
71172;SDS011;58875;51.996;4.504;2022-12-10T06:13:41;47.21;;;36.94;;
71172;SDS011;58875;51.996;4.504;2022-12-10T06:16:08;46.83;;;36.79;;
71172;SDS011;58875;51.996;4.504;2022-12-10T06:18:36;42.82;;;34.60;;
71172;SDS011;58875;51.996;4.504;2022-12-10T06:21:02;46.41;;;36.21;;
71172;SDS011;58875;51.996;4.504;2022-12-10T06:23:33;44.73;;;35.18;;
71172;SDS011;58875;51.996;4.504;2022-12-10T06:26:02;37.91;;;31.63;;
71172;SDS011;58875;51.996;4.504;2022-12-10T06:28:31;42.02;;;33.76;;
71172;SDS011;58875;51.996;4.504;2022-12-10T06:30:58;38.29;;;31.00;;
71172;SDS011;58875;51.996;4.504;2022-12-10T06:33:24;36.05;;;29.87;;
71172;SDS011;58875;51.996;4.504;2022-12-10T06:35:50;36.99;;;30.24;;
71172;SDS011;58875;51.996;4.504;2022-12-10T06:38:16;39.54;;;31.56;;
71172;SDS011;58875;51.996;4.504;2022-12-10T06:40:42;39.02;;;31.37;;
71172;SDS011;58875;51.996;4.504;2022-12-10T06:43:07;36.57;;;29.95;;
71172;SDS011;58875;51.996;4.504;2022-12-10T06:45:33;35.56;;;29.65;;
71172;SDS011;58875;51.996;4.504;2022-12-10T06:47:58;39.24;;;31.59;;
71172;SDS011;58875;51.996;4.504;2022-12-10T06:50:24;35.70;;;30.06;;
71172;SDS011;58875;51.996;4.504;2022-12-10T06:52:50;37.66;;;31.16;;
71172;SDS011;58875;51.996;4.504;2022-12-10T06:55:16;38.44;;;31.59;;
71172;SDS011;58875;51.996;4.504;2022-12-10T06:57:41;35.58;;;29.32;;
71172;SDS011;58875;51.996;4.504;2022-12-10T07:00:07;37.17;;;30.37;;
71172;SDS011;58875;51.996;4.504;2022-12-10T07:02:34;35.48;;;29.50;;
71172;SDS011;58875;51.996;4.504;2022-12-10T07:05:00;37.23;;;30.79;;
71172;SDS011;58875;51.996;4.504;2022-12-10T07:07:25;37.04;;;31.00;;
71172;SDS011;58875;51.996;4.504;2022-12-10T07:09:51;37.00;;;30.61;;
71172;SDS011;58875;51.996;4.504;2022-12-10T07:12:16;37.20;;;30.62;;
71172;SDS011;58875;51.996;4.504;2022-12-10T07:14:42;36.93;;;30.86;;
71172;SDS011;58875;51.996;4.504;2022-12-10T07:17:07;34.17;;;29.49;;
71172;SDS011;58875;51.996;4.504;2022-12-10T07:19:33;37.96;;;31.43;;
71172;SDS011;58875;51.996;4.504;2022-12-10T07:21:58;35.59;;;30.38;;
71172;SDS011;58875;51.996;4.504;2022-12-10T07:24:24;36.36;;;30.62;;
71172;SDS011;58875;51.996;4.504;2022-12-10T07:26:49;37.00;;;31.02;;
71172;SDS011;58875;51.996;4.504;2022-12-10T07:29:16;36.49;;;30.88;;
71172;SDS011;58875;51.996;4.504;2022-12-10T07:31:44;35.63;;;30.33;;
71172;SDS011;58875;51.996;4.504;2022-12-10T07:34:10;37.70;;;31.46;;
71172;SDS011;58875;51.996;4.504;2022-12-10T07:36:37;39.05;;;32.58;;
71172;SDS011;58875;51.996;4.504;2022-12-10T07:39:05;39.69;;;32.71;;
71172;SDS011;58875;51.996;4.504;2022-12-10T07:41:32;36.30;;;30.88;;
71172;SDS011;58875;51.996;4.504;2022-12-10T07:43:58;37.46;;;31.85;;
71172;SDS011;58875;51.996;4.504;2022-12-10T07:46:26;37.90;;;32.23;;
71172;SDS011;58875;51.996;4.504;2022-12-10T07:48:53;39.70;;;33.48;;
71172;SDS011;58875;51.996;4.504;2022-12-10T07:51:22;42.70;;;35.38;;
71172;SDS011;58875;51.996;4.504;2022-12-10T07:53:50;42.59;;;34.97;;
71172;SDS011;58875;51.996;4.504;2022-12-10T07:56:17;43.00;;;35.27;;
71172;SDS011;58875;51.996;4.504;2022-12-10T07:58:43;39.91;;;33.54;;
71172;SDS011;58875;51.996;4.504;2022-12-10T08:01:11;39.55;;;33.14;;
71172;SDS011;58875;51.996;4.504;2022-12-10T08:03:38;37.55;;;32.03;;
71172;SDS011;58875;51.996;4.504;2022-12-10T08:06:09;40.38;;;33.16;;
71172;SDS011;58875;51.996;4.504;2022-12-10T08:08:38;38.06;;;32.33;;
71172;SDS011;58875;51.996;4.504;2022-12-10T08:11:05;38.21;;;32.51;;
71172;SDS011;58875;51.996;4.504;2022-12-10T08:13:31;40.16;;;33.65;;
71172;SDS011;58875;51.996;4.504;2022-12-10T08:16:04;40.16;;;33.69;;
71172;SDS011;58875;51.996;4.504;2022-12-10T08:18:33;39.87;;;33.65;;
71172;SDS011;58875;51.996;4.504;2022-12-10T08:21:06;38.87;;;32.78;;
71172;SDS011;58875;51.996;4.504;2022-12-10T08:23:34;40.85;;;34.59;;
71172;SDS011;58875;51.996;4.504;2022-12-10T08:26:04;41.35;;;35.06;;
71172;SDS011;58875;51.996;4.504;2022-12-10T08:28:31;44.33;;;36.54;;
71172;SDS011;58875;51.996;4.504;2022-12-10T08:30:57;44.82;;;36.58;;
71172;SDS011;58875;51.996;4.504;2022-12-10T08:33:23;49.31;;;38.87;;
71172;SDS011;58875;51.996;4.504;2022-12-10T08:35:48;48.65;;;38.56;;
71172;SDS011;58875;51.996;4.504;2022-12-10T08:38:14;51.00;;;40.24;;
71172;SDS011;58875;51.996;4.504;2022-12-10T08:40:40;53.44;;;41.48;;
71172;SDS011;58875;51.996;4.504;2022-12-10T08:43:06;48.15;;;38.83;;
71172;SDS011;58875;51.996;4.504;2022-12-10T08:45:33;49.17;;;39.35;;
71172;SDS011;58875;51.996;4.504;2022-12-10T08:47:59;48.06;;;38.64;;
71172;SDS011;58875;51.996;4.504;2022-12-10T08:50:26;46.57;;;38.08;;
71172;SDS011;58875;51.996;4.504;2022-12-10T08:52:52;47.17;;;38.46;;
71172;SDS011;58875;51.996;4.504;2022-12-10T08:55:17;48.94;;;39.26;;
71172;SDS011;58875;51.996;4.504;2022-12-10T08:57:43;52.03;;;40.97;;
71172;SDS011;58875;51.996;4.504;2022-12-10T09:00:08;47.04;;;37.94;;
71172;SDS011;58875;51.996;4.504;2022-12-10T09:02:34;43.79;;;36.11;;
71172;SDS011;58875;51.996;4.504;2022-12-10T09:05:00;45.27;;;36.78;;
71172;SDS011;58875;51.996;4.504;2022-12-10T09:07:26;49.10;;;38.75;;
71172;SDS011;58875;51.996;4.504;2022-12-10T09:09:52;52.06;;;39.99;;
71172;SDS011;58875;51.996;4.504;2022-12-10T09:12:17;46.75;;;37.30;;
71172;SDS011;58875;51.996;4.504;2022-12-10T09:14:43;49.34;;;38.57;;
71172;SDS011;58875;51.996;4.504;2022-12-10T09:17:08;46.66;;;37.23;;
71172;SDS011;58875;51.996;4.504;2022-12-10T09:19:34;46.40;;;37.14;;
71172;SDS011;58875;51.996;4.504;2022-12-10T09:21:59;48.46;;;37.70;;
71172;SDS011;58875;51.996;4.504;2022-12-10T09:24:25;45.32;;;36.25;;
71172;SDS011;58875;51.996;4.504;2022-12-10T09:26:51;42.83;;;34.44;;
71172;SDS011;58875;51.996;4.504;2022-12-10T09:29:16;43.80;;;34.80;;
71172;SDS011;58875;51.996;4.504;2022-12-10T09:31:42;42.57;;;34.10;;
71172;SDS011;58875;51.996;4.504;2022-12-10T09:34:07;43.79;;;34.86;;
71172;SDS011;58875;51.996;4.504;2022-12-10T09:36:33;43.48;;;34.61;;
71172;SDS011;58875;51.996;4.504;2022-12-10T09:38:59;43.79;;;35.20;;
71172;SDS011;58875;51.996;4.504;2022-12-10T09:46:55;37.15;;;31.34;;
71172;SDS011;58875;51.996;4.504;2022-12-10T09:52:17;40.98;;;33.40;;
71172;SDS011;58875;51.996;4.504;2022-12-10T09:57:27;43.40;;;34.81;;
71172;SDS011;58875;51.996;4.504;2022-12-10T10:00:10;43.02;;;35.00;;
71172;SDS011;58875;51.996;4.504;2022-12-10T10:02:48;41.01;;;33.60;;
71172;SDS011;58875;51.996;4.504;2022-12-10T10:05:20;46.09;;;36.57;;
71172;SDS011;58875;51.996;4.504;2022-12-10T10:07:53;46.70;;;37.40;;
71172;SDS011;58875;51.996;4.504;2022-12-10T10:10:35;42.33;;;35.06;;
71172;SDS011;58875;51.996;4.504;2022-12-10T10:15:32;46.57;;;37.41;;
71172;SDS011;58875;51.996;4.504;2022-12-10T10:18:02;47.82;;;38.14;;
71172;SDS011;58875;51.996;4.504;2022-12-10T10:20:46;49.44;;;39.02;;
71172;SDS011;58875;51.996;4.504;2022-12-10T10:23:12;46.90;;;37.82;;
71172;SDS011;58875;51.996;4.504;2022-12-10T10:25:41;48.16;;;38.50;;
71172;SDS011;58875;51.996;4.504;2022-12-10T10:28:09;44.91;;;36.92;;
71172;SDS011;58875;51.996;4.504;2022-12-10T10:30:37;44.69;;;36.54;;
71172;SDS011;58875;51.996;4.504;2022-12-10T10:33:09;45.17;;;37.13;;
71172;SDS011;58875;51.996;4.504;2022-12-10T10:35:45;43.43;;;36.07;;
71172;SDS011;58875;51.996;4.504;2022-12-10T10:38:24;44.31;;;36.64;;
71172;SDS011;58875;51.996;4.504;2022-12-10T10:40:56;44.18;;;36.34;;
71172;SDS011;58875;51.996;4.504;2022-12-10T10:45:58;44.16;;;36.20;;
71172;SDS011;58875;51.996;4.504;2022-12-10T10:48:45;41.76;;;35.16;;
71172;SDS011;58875;51.996;4.504;2022-12-10T10:53:48;40.73;;;34.58;;
71172;SDS011;58875;51.996;4.504;2022-12-10T10:56:24;43.84;;;36.13;;
71172;SDS011;58875;51.996;4.504;2022-12-10T11:01:47;41.51;;;35.33;;
71172;SDS011;58875;51.996;4.504;2022-12-10T11:04:15;41.38;;;34.93;;
71172;SDS011;58875;51.996;4.504;2022-12-10T11:06:49;39.10;;;33.47;;
71172;SDS011;58875;51.996;4.504;2022-12-10T11:09:21;41.77;;;35.07;;
71172;SDS011;58875;51.996;4.504;2022-12-10T11:14:39;36.09;;;31.89;;
71172;SDS011;58875;51.996;4.504;2022-12-10T11:20:23;37.51;;;33.00;;
71172;SDS011;58875;51.996;4.504;2022-12-10T11:22:48;37.42;;;32.93;;
71172;SDS011;58875;51.996;4.504;2022-12-10T11:25:16;38.34;;;33.00;;
71172;SDS011;58875;51.996;4.504;2022-12-10T11:30:41;41.13;;;34.83;;
71172;SDS011;58875;51.996;4.504;2022-12-10T11:33:20;40.03;;;33.98;;
71172;SDS011;58875;51.996;4.504;2022-12-10T11:38:57;40.39;;;34.60;;
71172;SDS011;58875;51.996;4.504;2022-12-10T11:41:53;45.03;;;37.12;;
71172;SDS011;58875;51.996;4.504;2022-12-10T11:44:34;43.40;;;36.37;;
71172;SDS011;58875;51.996;4.504;2022-12-10T11:50:50;42.84;;;35.95;;
71172;SDS011;58875;51.996;4.504;2022-12-10T11:56:21;43.18;;;36.45;;
71172;SDS011;58875;51.996;4.504;2022-12-10T12:07:18;40.78;;;34.43;;
71172;SDS011;58875;51.996;4.504;2022-12-10T12:12:41;38.58;;;33.33;;
71172;SDS011;58875;51.996;4.504;2022-12-10T12:15:20;43.23;;;36.35;;
71172;SDS011;58875;51.996;4.504;2022-12-10T12:18:31;43.75;;;36.71;;
71172;SDS011;58875;51.996;4.504;2022-12-10T12:20:57;40.78;;;35.17;;
71172;SDS011;58875;51.996;4.504;2022-12-10T12:23:41;40.58;;;34.72;;
71172;SDS011;58875;51.996;4.504;2022-12-10T12:26:13;39.82;;;33.76;;
71172;SDS011;58875;51.996;4.504;2022-12-10T12:29:05;41.17;;;35.17;;
71172;SDS011;58875;51.996;4.504;2022-12-10T12:31:43;41.95;;;35.00;;
71172;SDS011;58875;51.996;4.504;2022-12-10T12:34:25;40.54;;;33.94;;
71172;SDS011;58875;51.996;4.504;2022-12-10T12:37:10;38.00;;;32.87;;
71172;SDS011;58875;51.996;4.504;2022-12-10T12:45:29;39.23;;;32.88;;
71172;SDS011;58875;51.996;4.504;2022-12-10T12:51:00;35.22;;;31.03;;
71172;SDS011;58875;51.996;4.504;2022-12-10T12:53:31;37.25;;;32.10;;
71172;SDS011;58875;51.996;4.504;2022-12-10T12:56:02;36.40;;;31.11;;
71172;SDS011;58875;51.996;4.504;2022-12-10T13:04:05;38.76;;;32.51;;
71172;SDS011;58875;51.996;4.504;2022-12-10T13:06:34;38.51;;;32.74;;
71172;SDS011;58875;51.996;4.504;2022-12-10T13:11:37;37.56;;;31.96;;
71172;SDS011;58875;51.996;4.504;2022-12-10T13:17:01;36.36;;;30.93;;
71172;SDS011;58875;51.996;4.504;2022-12-10T13:19:33;38.88;;;32.68;;
71172;SDS011;58875;51.996;4.504;2022-12-10T13:22:02;36.79;;;31.28;;
71172;SDS011;58875;51.996;4.504;2022-12-10T13:32:21;40.52;;;33.21;;
71172;SDS011;58875;51.996;4.504;2022-12-10T13:48:55;37.70;;;32.23;;
71172;SDS011;58875;51.996;4.504;2022-12-10T13:54:07;39.63;;;33.30;;
71172;SDS011;58875;51.996;4.504;2022-12-10T14:05:22;36.96;;;31.62;;
71172;SDS011;58875;51.996;4.504;2022-12-10T14:07:59;38.08;;;32.58;;
71172;SDS011;58875;51.996;4.504;2022-12-10T14:10:29;39.29;;;33.12;;
71172;SDS011;58875;51.996;4.504;2022-12-10T14:12:59;38.56;;;32.36;;
71172;SDS011;58875;51.996;4.504;2022-12-10T14:15:28;39.27;;;32.66;;
71172;SDS011;58875;51.996;4.504;2022-12-10T14:18:14;38.98;;;32.97;;
71172;SDS011;58875;51.996;4.504;2022-12-10T14:20:44;39.87;;;33.78;;
71172;SDS011;58875;51.996;4.504;2022-12-10T14:23:31;38.15;;;33.08;;
71172;SDS011;58875;51.996;4.504;2022-12-10T14:26:03;42.85;;;35.62;;
71172;SDS011;58875;51.996;4.504;2022-12-10T14:28:42;42.79;;;35.68;;
71172;SDS011;58875;51.996;4.504;2022-12-10T14:31:14;43.92;;;36.37;;
71172;SDS011;58875;51.996;4.504;2022-12-10T14:33:51;44.74;;;36.93;;
71172;SDS011;58875;51.996;4.504;2022-12-10T14:36:24;43.45;;;36.27;;
71172;SDS011;58875;51.996;4.504;2022-12-10T14:38:53;42.03;;;35.80;;
71172;SDS011;58875;51.996;4.504;2022-12-10T14:41:40;43.08;;;36.04;;
71172;SDS011;58875;51.996;4.504;2022-12-10T14:44:08;41.08;;;35.15;;
71172;SDS011;58875;51.996;4.504;2022-12-10T14:46:41;43.52;;;36.46;;
71172;SDS011;58875;51.996;4.504;2022-12-10T14:49:24;43.60;;;36.62;;
71172;SDS011;58875;51.996;4.504;2022-12-10T14:51:51;43.66;;;36.19;;
71172;SDS011;58875;51.996;4.504;2022-12-10T14:56:58;43.68;;;36.31;;
71172;SDS011;58875;51.996;4.504;2022-12-10T14:59:31;43.24;;;35.88;;
71172;SDS011;58875;51.996;4.504;2022-12-10T15:02:12;42.26;;;35.73;;
71172;SDS011;58875;51.996;4.504;2022-12-10T15:04:45;44.73;;;37.25;;
71172;SDS011;58875;51.996;4.504;2022-12-10T15:07:14;45.00;;;37.45;;
71172;SDS011;58875;51.996;4.504;2022-12-10T15:09:45;45.81;;;38.62;;
71172;SDS011;58875;51.996;4.504;2022-12-10T15:12:18;47.10;;;39.23;;
71172;SDS011;58875;51.996;4.504;2022-12-10T15:14:54;45.08;;;38.07;;
71172;SDS011;58875;51.996;4.504;2022-12-10T15:17:37;47.85;;;39.53;;
71172;SDS011;58875;51.996;4.504;2022-12-10T15:20:20;50.48;;;41.10;;
71172;SDS011;58875;51.996;4.504;2022-12-10T15:22:47;48.68;;;40.37;;
71172;SDS011;58875;51.996;4.504;2022-12-10T15:25:27;46.59;;;39.00;;
71172;SDS011;58875;51.996;4.504;2022-12-10T15:27:55;49.09;;;40.77;;
71172;SDS011;58875;51.996;4.504;2022-12-10T15:30:24;47.27;;;39.69;;
71172;SDS011;58875;51.996;4.504;2022-12-10T15:32:58;49.39;;;40.28;;
71172;SDS011;58875;51.996;4.504;2022-12-10T15:35:23;49.35;;;39.86;;
71172;SDS011;58875;51.996;4.504;2022-12-10T15:37:49;45.97;;;37.90;;
71172;SDS011;58875;51.996;4.504;2022-12-10T15:40:22;48.20;;;39.64;;
71172;SDS011;58875;51.996;4.504;2022-12-10T15:42:56;47.71;;;39.41;;
71172;SDS011;58875;51.996;4.504;2022-12-10T15:45:58;50.16;;;40.89;;
71172;SDS011;58875;51.996;4.504;2022-12-10T15:48:26;48.38;;;40.12;;
71172;SDS011;58875;51.996;4.504;2022-12-10T15:50:54;48.91;;;40.99;;
71172;SDS011;58875;51.996;4.504;2022-12-10T15:53:22;50.27;;;41.48;;
71172;SDS011;58875;51.996;4.504;2022-12-10T15:55:52;54.39;;;44.21;;
71172;SDS011;58875;51.996;4.504;2022-12-10T15:58:18;54.29;;;44.69;;
71172;SDS011;58875;51.996;4.504;2022-12-10T16:00:44;57.35;;;46.01;;
71172;SDS011;58875;51.996;4.504;2022-12-10T16:03:12;55.84;;;44.99;;
71172;SDS011;58875;51.996;4.504;2022-12-10T16:05:40;57.24;;;46.45;;
71172;SDS011;58875;51.996;4.504;2022-12-10T16:08:16;55.79;;;45.47;;
71172;SDS011;58875;51.996;4.504;2022-12-10T16:10:47;56.39;;;45.56;;
71172;SDS011;58875;51.996;4.504;2022-12-10T16:13:36;58.53;;;46.79;;
71172;SDS011;58875;51.996;4.504;2022-12-10T16:16:05;59.46;;;47.95;;
71172;SDS011;58875;51.996;4.504;2022-12-10T16:18:33;58.65;;;48.00;;
71172;SDS011;58875;51.996;4.504;2022-12-10T16:21:06;60.41;;;49.00;;
71172;SDS011;58875;51.996;4.504;2022-12-10T16:23:33;61.17;;;49.64;;
71172;SDS011;58875;51.996;4.504;2022-12-10T16:25:59;60.08;;;49.14;;
71172;SDS011;58875;51.996;4.504;2022-12-10T16:28:26;59.78;;;49.43;;
71172;SDS011;58875;51.996;4.504;2022-12-10T16:30:56;57.22;;;47.61;;
71172;SDS011;58875;51.996;4.504;2022-12-10T16:33:24;56.51;;;47.29;;
71172;SDS011;58875;51.996;4.504;2022-12-10T16:35:54;54.19;;;45.34;;
71172;SDS011;58875;51.996;4.504;2022-12-10T16:38:22;55.94;;;46.16;;
71172;SDS011;58875;51.996;4.504;2022-12-10T16:40:49;53.71;;;45.10;;
71172;SDS011;58875;51.996;4.504;2022-12-10T16:43:16;51.39;;;43.86;;
71172;SDS011;58875;51.996;4.504;2022-12-10T16:45:46;51.73;;;44.05;;